createdAt,value
2022-09-23T00:06:00.658Z,100
2022-09-23T00:16:01.269Z,100
2022-09-23T00:36:01.867Z,100
2022-09-23T00:56:02.802Z,100
2022-09-23T01:16:03.486Z,100
2022-09-23T01:26:03.618Z,100
2022-09-23T01:36:04.016Z,100
2022-09-23T01:46:04.410Z,100
2022-09-23T01:56:04.826Z,100
2022-09-23T02:06:05.043Z,100
2022-09-23T02:16:05.961Z,100
2022-09-23T03:06:08.951Z,100
2022-09-23T03:16:09.645Z,100
2022-09-23T03:26:09.907Z,100
2022-09-23T03:36:10.414Z,100
2022-09-23T03:46:10.670Z,100
2022-09-23T04:16:12.712Z,100
2022-09-23T04:26:13.186Z,100
2022-09-23T04:56:14.799Z,100
2022-09-23T05:06:15.351Z,100
2022-09-23T05:26:16.345Z,100
2022-09-23T05:56:17.777Z,100
2022-09-23T06:06:17.970Z,100
2022-09-23T06:16:18.253Z,100
2022-09-23T06:26:18.541Z,100
2022-09-23T06:36:34.450Z,100
2022-09-23T06:46:19.297Z,100
2022-09-23T06:56:19.923Z,100
2022-09-23T07:06:20.680Z,100
2022-09-23T07:16:21.607Z,100
2022-09-23T07:26:21.877Z,100
2022-09-23T07:36:22.175Z,100
2022-09-23T07:46:23.242Z,100
2022-09-23T07:56:23.372Z,100
2022-09-23T08:06:24.099Z,100
2022-09-23T08:16:24.515Z,100
2022-09-23T08:26:24.955Z,100
2022-09-23T08:36:25.344Z,100
2022-09-23T08:46:25.928Z,98
2022-09-23T08:56:25.936Z,96
2022-09-23T09:06:26.951Z,93
2022-09-23T09:26:27.669Z,87
2022-09-23T09:36:30.806Z,84
2022-09-23T09:46:28.861Z,81
2022-09-23T10:06:29.653Z,76
2022-09-23T10:16:30.528Z,75
2022-09-23T10:26:31.213Z,75
2022-09-23T10:36:31.375Z,74
2022-09-23T10:46:31.714Z,73
2022-09-23T10:56:32.315Z,69
2022-09-23T11:06:32.759Z,68
2022-09-23T11:16:33.815Z,68
2022-09-23T11:26:34.071Z,65
2022-09-23T11:36:34.332Z,64
2022-09-23T11:46:34.789Z,63
2022-09-23T11:56:36.082Z,63
2022-09-23T12:06:35.372Z,62
2022-09-23T12:16:36.298Z,62
2022-09-23T12:26:36.730Z,61
2022-09-23T12:36:37.462Z,61
2022-09-23T12:46:37.650Z,62
2022-09-23T12:56:38.486Z,61
2022-09-23T13:06:39.146Z,61
2022-09-23T13:16:40.116Z,60
2022-09-23T13:26:40.202Z,61
2022-09-23T13:36:40.650Z,60
2022-09-23T13:46:41.527Z,60
2022-09-23T13:56:41.969Z,60
2022-09-23T14:06:42.459Z,60
2022-09-23T14:16:43.375Z,60
2022-09-23T14:36:45.145Z,59
2022-09-23T14:46:45.731Z,59
2022-09-23T14:56:46.698Z,60
2022-09-23T15:06:47.075Z,61
2022-09-23T15:16:48.158Z,61
2022-09-23T15:26:48.555Z,61
2022-09-23T15:36:48.905Z,62
2022-09-23T15:46:49.722Z,61
2022-09-23T15:56:49.993Z,62
2022-09-23T16:06:51.030Z,64
2022-09-23T16:16:51.783Z,65
2022-09-23T16:26:52.090Z,66
2022-09-23T16:36:52.903Z,67
2022-09-23T16:46:53.062Z,67
2022-09-23T16:56:53.175Z,68
2022-09-23T17:06:53.594Z,72
2022-09-23T17:16:54.674Z,74
2022-09-23T17:26:55.668Z,76
2022-09-23T17:36:56.600Z,78
2022-09-23T17:46:57.589Z,78
2022-09-23T17:56:58.504Z,79
2022-09-23T18:06:59.370Z,79
2022-09-23T18:16:59.700Z,80
2022-09-23T18:27:00.266Z,81
2022-09-23T18:37:00.375Z,82
2022-09-23T18:47:00.830Z,83
2022-09-23T18:57:01.102Z,83
2022-09-23T19:07:01.882Z,84
2022-09-23T19:17:02.548Z,85
2022-09-23T19:27:03.324Z,85
2022-09-23T19:37:04.382Z,85
2022-09-23T19:47:04.661Z,86
2022-09-23T19:57:05.271Z,87
2022-09-23T20:07:05.994Z,88
2022-09-23T20:17:06.732Z,88
2022-09-23T20:37:08.524Z,90
2022-09-23T20:47:09.644Z,92
2022-09-23T20:57:10.452Z,92
2022-09-23T21:07:10.971Z,93
2022-09-23T21:17:11.614Z,94
2022-09-23T21:27:11.844Z,95
2022-09-23T21:37:12.797Z,96
2022-09-23T21:47:12.990Z,96
2022-09-23T21:57:13.678Z,96
2022-09-23T22:07:14.699Z,98
2022-09-23T22:17:14.822Z,98
2022-09-23T22:37:15.679Z,99
2022-09-23T22:47:15.993Z,99
2022-09-23T22:57:16.197Z,100
2022-09-23T23:07:16.531Z,100
2022-09-23T23:17:17.512Z,100
2022-09-23T23:27:18.277Z,100
2022-09-23T23:37:21.042Z,100
2022-09-23T23:47:20.058Z,100
2022-09-23T23:57:20.505Z,100
